Time;durP1;ratioP1;P1;durP2;ratioP2;P2;SDS_P1;SDS_P2;PMS_P1;PMS_P2;Temp;Humidity;BMP_temperature;BMP_pressure;BME280_temperature;BME280_humidity;BME280_pressure;Samples;Min_cycle;Max_cycle;Signal;HPM_P1;HPM_P2
2023/09/22 00:00:10;;;;;;;3.78;2.35;;;16.00;99.90;;;;;;4954354;29;20207;-79
2023/09/22 00:02:37;;;;;;;2.35;2.15;;;15.90;99.90;;;;;;4955506;29;20203;-79
2023/09/22 00:05:06;;;;;;;4.63;2.67;;;15.80;99.90;;;;;;4960892;29;20238;-77
2023/09/22 00:07:33;;;;;;;2.50;2.30;;;15.80;99.90;;;;;;4953683;29;20219;-79
2023/09/22 00:10:00;;;;;;;3.00;2.22;;;15.90;99.90;;;;;;4947219;29;20207;-79
2023/09/22 00:12:27;;;;;;;2.58;2.15;;;15.90;99.90;;;;;;4947472;29;20303;-79
2023/09/22 00:14:54;;;;;;;5.15;2.40;;;15.70;99.90;;;;;;4941958;29;20222;-79
2023/09/22 00:17:22;;;;;;;2.38;1.80;;;15.70;99.90;;;;;;4943844;29;20294;-77
2023/09/22 00:19:49;;;;;;;2.58;1.83;;;15.60;99.90;;;;;;4948967;29;20234;-79
2023/09/22 00:22:15;;;;;;;2.42;1.48;;;15.60;99.90;;;;;;4940364;29;20298;-78
2023/09/22 00:24:42;;;;;;;1.95;1.80;;;15.50;99.90;;;;;;4948209;29;20274;-78
2023/09/22 00:27:10;;;;;;;2.10;1.50;;;15.60;99.90;;;;;;4951167;29;20296;-79
2023/09/22 00:29:37;;;;;;;2.55;1.65;;;15.50;99.90;;;;;;4951741;29;20221;-78
2023/09/22 00:32:04;;;;;;;1.50;1.30;;;15.50;99.90;;;;;;4955895;29;20199;-79
2023/09/22 00:34:34;;;;;;;1.50;1.35;;;15.50;99.90;;;;;;4951615;29;20203;-79
2023/09/22 00:37:00;;;;;;;2.75;1.38;;;15.40;99.90;;;;;;4944392;29;20235;-79
2023/09/22 00:39:28;;;;;;;4.47;1.30;;;15.40;99.90;;;;;;4942935;29;20211;-79
2023/09/22 00:41:55;;;;;;;1.77;1.40;;;15.40;99.90;;;;;;4950943;29;20199;-79
2023/09/22 00:44:22;;;;;;;1.35;1.25;;;15.30;99.90;;;;;;4950577;29;20208;-78
2023/09/22 00:46:49;;;;;;;1.23;1.13;;;15.20;99.90;;;;;;4948928;29;20227;-79
2023/09/22 00:49:17;;;;;;;1.40;1.30;;;15.20;99.90;;;;;;4957292;29;20203;-79
2023/09/22 00:51:46;;;;;;;3.65;1.30;;;15.20;99.90;;;;;;4947203;29;20266;-79
2023/09/22 00:54:13;;;;;;;1.60;1.50;;;15.30;99.90;;;;;;4950211;29;20200;-78
2023/09/22 00:56:40;;;;;;;1.27;0.95;;;15.30;99.90;;;;;;4949116;29;20267;-79
2023/09/22 00:59:07;;;;;;;1.17;1.08;;;15.20;99.90;;;;;;4948500;29;20207;-78
2023/09/22 01:01:34;;;;;;;1.42;1.02;;;15.20;99.90;;;;;;4948447;29;20207;-78
2023/09/22 01:04:01;;;;;;;1.58;1.20;;;15.30;99.90;;;;;;4955450;29;20275;-77
2023/09/22 01:06:28;;;;;;;1.77;1.25;;;15.30;99.90;;;;;;4949600;29;20218;-78
2023/09/22 01:08:57;;;;;;;2.05;1.30;;;15.40;99.90;;;;;;4948870;29;20245;-79
2023/09/22 01:11:24;;;;;;;2.03;1.60;;;15.20;99.90;;;;;;4949200;29;20203;-78
2023/09/22 01:13:51;;;;;;;2.53;1.85;;;15.20;99.90;;;;;;4949660;29;20202;-78
2023/09/22 01:16:18;;;;;;;1.33;1.23;;;15.30;99.90;;;;;;4947085;29;20223;-78
2023/09/22 01:18:45;;;;;;;1.30;1.20;;;15.20;99.90;;;;;;4945755;29;20254;-79
2023/09/22 01:21:14;;;;;;;2.00;1.45;;;15.20;99.90;;;;;;4948272;29;20520;-79
2023/09/22 01:23:42;;;;;;;1.67;1.38;;;15.20;99.90;;;;;;4949801;29;20230;-80
2023/09/22 01:26:09;;;;;;;1.55;1.35;;;15.10;99.90;;;;;;4947462;29;20258;-79
2023/09/22 01:28:36;;;;;;;2.73;1.30;;;15.20;99.90;;;;;;4948823;29;20231;-80
2023/09/22 01:31:04;;;;;;;1.40;1.25;;;15.10;99.90;;;;;;4947472;29;20226;-79
2023/09/22 01:33:31;;;;;;;2.22;1.20;;;15.20;99.90;;;;;;4947396;29;20208;-80
2023/09/22 01:35:57;;;;;;;2.40;1.20;;;15.10;99.90;;;;;;4949324;29;20207;-80
2023/09/22 01:38:25;;;;;;;2.90;1.23;;;15.10;99.90;;;;;;4947998;29;20235;-79
2023/09/22 01:40:54;;;;;;;2.70;1.10;;;15.10;99.90;;;;;;4950348;29;20206;-80
2023/09/22 01:43:21;;;;;;;2.17;1.13;;;14.90;99.90;;;;;;4949525;29;20199;-80
2023/09/22 01:45:47;;;;;;;1.58;1.40;;;15.00;99.90;;;;;;4946709;29;20217;-78
2023/09/22 01:48:14;;;;;;;3.75;1.20;;;15.00;99.90;;;;;;4940068;29;20266;-77
2023/09/22 01:50:42;;;;;;;1.38;1.05;;;15.00;99.90;;;;;;4946127;29;20211;-77
2023/09/22 01:53:10;;;;;;;1.92;0.88;;;15.00;99.90;;;;;;4938884;29;20213;-78
2023/09/22 01:55:37;;;;;;;1.13;1.02;;;15.10;99.90;;;;;;4944996;29;20203;-77
2023/09/22 01:58:07;;;;;;;1.05;1.00;;;15.10;99.90;;;;;;4941039;29;20290;-78
2023/09/22 02:00:34;;;;;;;2.25;0.90;;;15.00;99.90;;;;;;4949009;29;20215;-78
2023/09/22 02:03:01;;;;;;;1.50;1.17;;;14.90;99.90;;;;;;4949702;29;20210;-78
2023/09/22 02:05:29;;;;;;;0.70;0.70;;;14.90;99.90;;;;;;4949862;29;20211;-79
2023/09/22 02:07:57;;;;;;;2.28;1.02;;;14.90;99.90;;;;;;4949236;29;20694;-79
2023/09/22 02:10:24;;;;;;;1.13;1.02;;;14.90;99.90;;;;;;4951575;29;20206;-78
2023/09/22 02:12:51;;;;;;;1.40;1.10;;;14.80;99.90;;;;;;4945490;29;20205;-79
2023/09/22 02:15:19;;;;;;;1.63;1.13;;;14.90;99.90;;;;;;4945167;29;20206;-78
2023/09/22 02:17:47;;;;;;;1.70;0.80;;;14.90;99.90;;;;;;4940128;29;20239;-78
2023/09/22 02:20:21;;;;;;;1.08;0.95;;;15.10;99.90;;;;;;4944278;29;20210;-79
2023/09/22 02:22:49;;;;;;;1.02;0.90;;;15.00;99.90;;;;;;4945915;29;20676;-78
2023/09/22 02:25:16;;;;;;;1.38;1.10;;;15.00;99.90;;;;;;4946010;29;20210;-79
2023/09/22 02:27:43;;;;;;;1.23;1.00;;;14.90;99.90;;;;;;4945333;29;20245;-78
2023/09/22 02:30:11;;;;;;;2.17;1.00;;;14.80;99.90;;;;;;4945789;29;20279;-78
2023/09/22 02:32:41;;;;;;;6.20;1.60;;;14.90;99.90;;;;;;4946062;29;20230;-78
2023/09/22 02:35:08;;;;;;;1.70;1.23;;;14.80;99.90;;;;;;4945733;29;20652;-79
2023/09/22 02:37:36;;;;;;;1.42;0.98;;;14.70;99.90;;;;;;4945001;29;20223;-78
2023/09/22 02:40:04;;;;;;;2.90;0.95;;;14.80;99.90;;;;;;4945317;29;20207;-78
2023/09/22 02:42:31;;;;;;;0.95;0.80;;;14.70;99.90;;;;;;4941137;29;20227;-78
2023/09/22 02:44:58;;;;;;;2.25;1.05;;;14.60;99.90;;;;;;4946518;29;20294;-78
2023/09/22 02:47:27;;;;;;;0.85;0.80;;;14.70;99.90;;;;;;4945172;29;20238;-78
2023/09/22 02:49:55;;;;;;;1.85;0.85;;;14.70;99.90;;;;;;4946146;29;20558;-78
2023/09/22 02:52:22;;;;;;;0.77;0.77;;;14.70;99.90;;;;;;4945309;29;20203;-78
2023/09/22 02:54:52;;;;;;;2.67;1.20;;;14.80;99.90;;;;;;4941931;29;20688;-78
2023/09/22 02:57:19;;;;;;;2.90;1.10;;;14.80;99.90;;;;;;4948301;29;20237;-78
2023/09/22 02:59:46;;;;;;;1.23;0.90;;;14.90;99.90;;;;;;4945054;29;20213;-78
2023/09/22 03:02:13;;;;;;;1.43;0.90;;;14.90;99.90;;;;;;4944482;29;20206;-78
2023/09/22 03:04:40;;;;;;;3.03;1.00;;;15.00;99.90;;;;;;4944076;29;20227;-78
2023/09/22 03:07:08;;;;;;;2.43;0.90;;;14.90;99.90;;;;;;4943873;29;20227;-78
2023/09/22 03:09:36;;;;;;;1.73;1.13;;;14.80;99.90;;;;;;4945650;29;20211;-79
2023/09/22 03:12:03;;;;;;;1.67;1.00;;;15.00;99.90;;;;;;4947112;29;20234;-78
2023/09/22 03:14:30;;;;;;;1.13;0.90;;;15.00;99.90;;;;;;4943946;29;20219;-77
2023/09/22 03:16:57;;;;;;;1.17;1.00;;;14.90;99.90;;;;;;4943620;29;20256;-78
2023/09/22 03:19:24;;;;;;;1.97;0.90;;;14.90;99.90;;;;;;4944301;29;20506;-80
2023/09/22 03:21:51;;;;;;;1.60;1.00;;;14.90;99.90;;;;;;4945424;29;20248;-80
2023/09/22 03:24:19;;;;;;;0.93;0.80;;;14.80;99.90;;;;;;4942313;29;20666;-78
2023/09/22 03:26:46;;;;;;;1.37;0.70;;;14.80;99.90;;;;;;4938297;29;20311;-78
2023/09/22 03:29:13;;;;;;;1.70;1.23;;;14.80;99.90;;;;;;4945589;29;20203;-79
2023/09/22 03:31:40;;;;;;;1.73;1.03;;;14.80;99.90;;;;;;4946330;29;20227;-79
2023/09/22 03:34:07;;;;;;;5.87;3.47;;;14.80;99.90;;;;;;4946592;29;20218;-80
2023/09/22 03:36:35;;;;;;;2.47;1.92;;;14.80;99.90;;;;;;4941446;29;20260;-80
2023/09/22 03:39:03;;;;;;;10.38;6.55;;;14.70;99.90;;;;;;4948153;29;20258;-80
2023/09/22 03:41:31;;;;;;;1.83;1.27;;;14.70;99.90;;;;;;4942880;28;20210;-80
2023/09/22 03:43:58;;;;;;;1.53;0.93;;;14.70;99.90;;;;;;4936856;29;20218;-80
2023/09/22 03:46:25;;;;;;;1.43;1.00;;;14.70;99.90;;;;;;4942355;29;20339;-80
2023/09/22 03:48:52;;;;;;;1.00;0.80;;;14.70;99.90;;;;;;4939172;29;20220;-80
2023/09/22 03:51:18;;;;;;;1.93;1.13;;;14.70;99.90;;;;;;4940609;29;20210;-81
2023/09/22 03:53:45;;;;;;;3.97;1.47;;;14.60;99.90;;;;;;4946932;29;20203;-81
2023/09/22 03:56:12;;;;;;;2.28;0.80;;;14.60;99.90;;;;;;4942540;29;20210;-79
2023/09/22 03:58:41;;;;;;;0.97;0.87;;;14.50;99.90;;;;;;4937871;29;20244;-81
2023/09/22 04:01:09;;;;;;;5.37;1.23;;;14.50;99.90;;;;;;4942894;29;20221;-80
2023/09/22 04:03:36;;;;;;;1.50;1.03;;;14.50;99.90;;;;;;4948869;29;20250;-79
2023/09/22 04:06:05;;;;;;;2.57;1.40;;;14.60;99.90;;;;;;4944414;29;20215;-81
2023/09/22 04:08:31;;;;;;;3.53;2.22;;;14.50;99.90;;;;;;4937888;29;20223;-78
2023/09/22 04:11:01;;;;;;;1.90;1.20;;;14.50;99.90;;;;;;4950691;29;20211;-79
2023/09/22 04:13:28;;;;;;;1.48;1.27;;;14.50;99.90;;;;;;4944988;29;20218;-80
2023/09/22 04:15:59;;;;;;;1.17;1.00;;;14.50;99.90;;;;;;4944129;29;20216;-80
2023/09/22 04:18:29;;;;;;;1.70;1.17;;;14.40;99.90;;;;;;4943146;29;20234;-79
2023/09/22 04:20:57;;;;;;;1.70;1.30;;;14.40;99.90;;;;;;4945044;29;20259;-79
2023/09/22 04:23:25;;;;;;;3.35;0.98;;;14.40;99.90;;;;;;4943599;29;20207;-80
2023/09/22 04:25:53;;;;;;;1.30;0.90;;;14.30;99.90;;;;;;4940102;29;20284;-78
2023/09/22 04:28:23;;;;;;;2.43;1.07;;;14.30;99.90;;;;;;4939187;29;20219;-79
2023/09/22 04:30:50;;;;;;;1.27;1.17;;;14.30;99.90;;;;;;4936395;29;20219;-79
2023/09/22 04:33:19;;;;;;;3.33;1.17;;;14.30;99.90;;;;;;4937313;29;20206;-80
2023/09/22 04:35:48;;;;;;;8.13;1.60;;;14.30;99.90;;;;;;4937065;29;20643;-79
2023/09/22 04:38:14;;;;;;;3.30;1.30;;;14.30;99.90;;;;;;4936695;29;20305;-79
2023/09/22 04:40:42;;;;;;;2.40;1.10;;;14.30;99.90;;;;;;4936266;29;20227;-79
2023/09/22 04:43:11;;;;;;;3.50;2.60;;;14.20;99.90;;;;;;4926514;29;20299;-81
2023/09/22 04:45:39;;;;;;;4.63;2.40;;;14.30;99.90;;;;;;4931256;29;20199;-81
2023/09/22 04:48:06;;;;;;;4.70;1.20;;;14.20;99.90;;;;;;4943317;29;20227;-80
2023/09/22 04:50:35;;;;;;;1.30;1.20;;;14.20;99.90;;;;;;4943268;29;20214;-80
2023/09/22 04:53:01;;;;;;;1.73;1.23;;;14.20;99.90;;;;;;4943984;29;20211;-81
2023/09/22 04:55:31;;;;;;;2.83;1.47;;;14.20;99.90;;;;;;4943633;29;20230;-81
2023/09/22 04:57:58;;;;;;;1.03;0.97;;;14.20;99.90;;;;;;4941912;29;20648;-81
2023/09/22 05:00:27;;;;;;;1.60;1.30;;;14.20;99.90;;;;;;4943381;29;20207;-80
2023/09/22 05:02:54;;;;;;;2.67;1.60;;;14.20;99.90;;;;;;4943104;29;20230;-80
2023/09/22 05:05:22;;;;;;;1.30;1.00;;;14.20;99.90;;;;;;4946737;29;20232;-81
2023/09/22 05:07:50;;;;;;;2.20;1.40;;;14.30;99.90;;;;;;4961992;29;20269;-79
2023/09/22 05:10:17;;;;;;;1.80;1.30;;;14.40;99.90;;;;;;4961561;28;20237;-81
2023/09/22 05:12:44;;;;;;;1.30;1.20;;;14.40;99.90;;;;;;4959112;28;20210;-81
2023/09/22 05:15:11;;;;;;;2.40;1.30;;;14.50;99.90;;;;;;4933883;29;20564;-81
2023/09/22 05:17:38;;;;;;;3.17;1.77;;;14.50;99.90;;;;;;4936722;29;20917;-81
2023/09/22 05:20:11;;;;;;;2.93;1.83;;;14.50;99.90;;;;;;4943466;29;20598;-80
2023/09/22 05:22:38;;;;;;;2.97;2.27;;;14.50;99.90;;;;;;4942848;29;20199;-81
2023/09/22 05:25:07;;;;;;;3.73;2.60;;;14.60;99.90;;;;;;4942722;29;20203;-80
2023/09/22 05:27:35;;;;;;;3.90;1.97;;;14.50;99.90;;;;;;4942722;29;20603;-80
2023/09/22 05:30:02;;;;;;;3.90;2.00;;;14.60;99.90;;;;;;4951457;29;20214;-81
2023/09/22 05:32:29;;;;;;;2.30;1.83;;;14.60;99.90;;;;;;4960320;29;20203;-81
2023/09/22 05:34:56;;;;;;;4.57;1.90;;;14.70;99.90;;;;;;4943724;29;20203;-81
2023/09/22 05:37:23;;;;;;;3.47;2.85;;;14.60;99.90;;;;;;4942178;29;20241;-81
2023/09/22 05:39:51;;;;;;;4.40;2.27;;;14.70;99.90;;;;;;4942267;29;20217;-81
2023/09/22 05:42:19;;;;;;;5.97;3.00;;;14.70;99.90;;;;;;4940372;29;20211;-81
2023/09/22 05:44:46;;;;;;;2.17;1.98;;;14.70;99.90;;;;;;4939625;29;20211;-79
2023/09/22 05:47:13;;;;;;;4.03;2.40;;;14.70;99.90;;;;;;4944700;29;20734;-80
2023/09/22 05:49:40;;;;;;;1.83;1.67;;;14.60;99.90;;;;;;4940151;29;20207;-79
2023/09/22 05:52:06;;;;;;;2.00;1.70;;;14.50;99.90;;;;;;4940139;29;20204;-79
2023/09/22 05:54:33;;;;;;;2.00;1.50;;;14.50;99.90;;;;;;4943955;29;20207;-79
2023/09/22 05:57:00;;;;;;;2.65;2.00;;;14.60;99.90;;;;;;4943091;29;20219;-79
2023/09/22 05:59:29;;;;;;;4.32;1.98;;;14.60;99.90;;;;;;4937185;29;20242;-79
2023/09/22 06:01:57;;;;;;;2.00;1.63;;;14.60;99.90;;;;;;4941518;29;20222;-79
2023/09/22 06:04:24;;;;;;;1.75;1.52;;;14.60;99.90;;;;;;4945555;29;20235;-79
2023/09/22 06:06:53;;;;;;;3.20;1.75;;;14.60;99.90;;;;;;4934619;29;20654;-80
2023/09/22 06:09:21;;;;;;;1.90;1.70;;;14.60;99.90;;;;;;4937410;29;20199;-79
2023/09/22 06:11:48;;;;;;;17.77;11.32;;;14.60;99.90;;;;;;4945333;29;20266;-80
2023/09/22 06:14:15;;;;;;;11.52;6.55;;;14.60;99.90;;;;;;4944586;29;20963;-79
2023/09/22 06:16:43;;;;;;;1.60;1.50;;;14.70;99.90;;;;;;4932841;29;20222;-80
2023/09/22 06:19:10;;;;;;;2.50;1.90;;;14.70;99.90;;;;;;4935105;29;21046;-81
2023/09/22 06:21:38;;;;;;;2.53;1.67;;;14.80;99.90;;;;;;4942848;29;20214;-80
2023/09/22 06:24:06;;;;;;;2.17;1.60;;;14.80;99.90;;;;;;4932986;29;20212;-79
2023/09/22 06:26:33;;;;;;;2.80;1.37;;;14.90;99.90;;;;;;4943595;28;20211;-78
2023/09/22 06:29:00;;;;;;;1.70;1.42;;;14.90;99.90;;;;;;4938951;29;20568;-79
2023/09/22 06:31:26;;;;;;;3.07;1.70;;;14.90;99.90;;;;;;4943331;29;20223;-78
2023/09/22 06:33:54;;;;;;;4.18;1.85;;;14.80;99.90;;;;;;4939517;29;20207;-79
2023/09/22 06:36:22;;;;;;;2.20;1.90;;;14.90;99.90;;;;;;4941017;29;20541;-79
2023/09/22 06:38:51;;;;;;;2.88;2.35;;;14.90;99.90;;;;;;4940978;29;20270;-80
2023/09/22 06:41:18;;;;;;;3.05;2.08;;;14.90;99.90;;;;;;4939366;29;20211;-79
2023/09/22 06:43:46;;;;;;;3.47;2.30;;;15.00;99.90;;;;;;4941807;29;20206;-79
2023/09/22 06:46:14;;;;;;;4.38;2.30;;;15.00;99.90;;;;;;4940733;29;20218;-80
2023/09/22 06:48:41;;;;;;;8.50;2.40;;;15.00;99.90;;;;;;4940365;29;20222;-79
2023/09/22 06:51:16;;;;;;;3.97;2.60;;;15.10;99.90;;;;;;4941129;29;20207;-79
2023/09/22 06:53:43;;;;;;;3.75;2.42;;;15.10;99.90;;;;;;4941185;29;20218;-80
2023/09/22 06:56:10;;;;;;;6.07;3.13;;;15.20;99.90;;;;;;4937561;29;20222;-80
2023/09/22 06:58:38;;;;;;;3.35;2.70;;;15.70;99.90;;;;;;4943546;29;20230;-79
2023/09/22 07:01:12;;;;;;;4.70;2.88;;;15.30;99.90;;;;;;4939421;29;20601;-80
2023/09/22 07:03:39;;;;;;;3.17;2.67;;;15.40;99.90;;;;;;4939407;29;20262;-79
2023/09/22 07:06:08;;;;;;;5.43;2.97;;;15.40;99.90;;;;;;4944739;29;20210;-80
2023/09/22 07:08:36;;;;;;;3.88;2.75;;;15.40;99.90;;;;;;4944360;29;20666;-81
2023/09/22 07:11:03;;;;;;;4.18;2.65;;;15.30;99.90;;;;;;4934792;29;20298;-81
2023/09/22 07:13:30;;;;;;;3.00;2.70;;;15.40;99.90;;;;;;4940745;29;20207;-81
2023/09/22 07:15:57;;;;;;;3.03;2.70;;;15.40;99.90;;;;;;4941900;29;20210;-81
2023/09/22 07:18:25;;;;;;;5.38;2.67;;;15.40;99.90;;;;;;4939667;29;20294;-79
2023/09/22 07:20:52;;;;;;;4.18;2.88;;;15.40;99.90;;;;;;4943215;29;20199;-80
2023/09/22 07:23:20;;;;;;;3.45;2.45;;;15.50;99.90;;;;;;4942536;29;20219;-80
2023/09/22 07:25:59;;;;;;;3.40;2.70;;;15.40;99.90;;;;;;4936180;29;20682;-80
2023/09/22 07:28:26;;;;;;;4.22;2.53;;;15.40;99.90;;;;;;4932545;29;20721;-79
2023/09/22 07:30:53;;;;;;;2.92;2.30;;;15.40;99.90;;;;;;4934570;29;20302;-82
2023/09/22 07:33:20;;;;;;;2.47;2.10;;;15.50;99.90;;;;;;4932372;29;20207;-79
2023/09/22 07:35:48;;;;;;;4.78;2.13;;;15.50;99.90;;;;;;4939225;29;20213;-79
2023/09/22 07:38:16;;;;;;;3.92;2.75;;;15.60;99.90;;;;;;4942779;29;20245;-80
2023/09/22 07:40:43;;;;;;;3.65;2.25;;;15.60;99.90;;;;;;4941054;29;20274;-79
2023/09/22 07:43:12;;;;;;;2.67;2.40;;;15.60;99.90;;;;;;4937920;29;20203;-79
2023/09/22 07:45:39;;;;;;;5.57;2.13;;;15.60;99.90;;;;;;4932039;29;20203;-79
2023/09/22 07:48:06;;;;;;;4.88;2.33;;;15.70;99.90;;;;;;4934202;29;20226;-80
2023/09/22 07:50:34;;;;;;;2.70;2.28;;;15.70;99.90;;;;;;4933483;29;20211;-79
2023/09/22 07:53:02;;;;;;;2.42;2.22;;;15.80;99.90;;;;;;4939860;29;20207;-80
2023/09/22 07:55:29;;;;;;;4.50;2.38;;;15.80;99.90;;;;;;4945431;29;20211;-79
2023/09/22 07:57:56;;;;;;;2.30;2.10;;;16.00;99.90;;;;;;4936411;29;20238;-78
2023/09/22 08:00:26;;;;;;;2.53;1.98;;;16.00;99.90;;;;;;4937300;29;20222;-79
2023/09/22 08:02:53;;;;;;;2.92;2.10;;;16.00;99.90;;;;;;4942778;29;20266;-80
2023/09/22 08:05:20;;;;;;;3.55;2.08;;;15.90;99.90;;;;;;4937078;29;20617;-79
2023/09/22 08:07:49;;;;;;;2.72;1.80;;;15.80;99.90;;;;;;4936076;29;20693;-79
2023/09/22 08:10:17;;;;;;;3.13;1.83;;;15.90;99.90;;;;;;4940827;29;20204;-79
2023/09/22 08:12:44;;;;;;;2.95;1.75;;;15.80;99.90;;;;;;4939522;29;20258;-81
2023/09/22 08:15:11;;;;;;;3.17;1.38;;;15.80;99.90;;;;;;4945532;29;20207;-78
2023/09/22 08:17:41;;;;;;;2.25;1.35;;;15.80;99.90;;;;;;4944523;29;20295;-79
2023/09/22 08:20:11;;;;;;;2.33;1.20;;;15.70;99.90;;;;;;4943281;29;20258;-79
2023/09/22 08:22:38;;;;;;;1.65;1.40;;;15.60;99.90;;;;;;4942232;29;20295;-80
2023/09/22 08:25:08;;;;;;;2.63;1.10;;;15.70;99.90;;;;;;4936268;29;20215;-79
2023/09/22 08:27:35;;;;;;;3.88;1.23;;;15.70;99.90;;;;;;4940734;29;20231;-80
2023/09/22 08:30:09;;;;;;;4.03;1.42;;;15.70;99.90;;;;;;4944801;29;20281;-80
2023/09/22 08:32:37;;;;;;;2.28;1.45;;;15.70;99.90;;;;;;4942362;29;20242;-79
2023/09/22 08:35:06;;;;;;;2.30;1.33;;;15.80;99.90;;;;;;4941359;29;20238;-79
2023/09/22 08:37:36;;;;;;;4.75;1.23;;;15.90;99.90;;;;;;4943959;29;20620;-79
2023/09/22 08:40:09;;;;;;;1.70;0.98;;;16.00;99.90;;;;;;4944624;29;20247;-80
2023/09/22 08:42:37;;;;;;;1.17;1.08;;;16.00;99.90;;;;;;4931180;29;20275;-78
2023/09/22 08:45:06;;;;;;;3.15;1.25;;;16.00;99.90;;;;;;4943807;29;20203;-80
2023/09/22 08:47:38;;;;;;;2.30;1.30;;;16.00;99.90;;;;;;4942027;29;20235;-79
2023/09/22 08:50:10;;;;;;;2.45;1.33;;;16.10;99.90;;;;;;4940505;29;20226;-79
2023/09/22 08:52:38;;;;;;;3.75;1.25;;;16.20;99.90;;;;;;4938836;29;20212;-78
2023/09/22 08:55:08;;;;;;;2.35;1.10;;;16.10;99.90;;;;;;4945132;29;21038;-78
2023/09/22 08:57:36;;;;;;;2.65;1.23;;;16.10;99.90;;;;;;4945561;29;20231;-79
2023/09/22 09:00:10;;;;;;;1.23;1.10;;;16.20;99.90;;;;;;4944567;29;20235;-80
2023/09/22 09:02:37;;;;;;;1.80;1.00;;;16.20;99.90;;;;;;4953547;29;20205;-79
2023/09/22 09:05:19;;;;;;;1.20;1.10;;;16.30;99.90;;;;;;4943514;29;20261;-81
2023/09/22 09:07:46;;;;;;;1.85;1.13;;;16.50;99.90;;;;;;4942337;29;20221;-78
2023/09/22 09:10:25;;;;;;;2.30;1.30;;;16.50;99.90;;;;;;4941349;29;20225;-79
2023/09/22 09:12:52;;;;;;;1.80;1.17;;;16.90;99.90;;;;;;4927846;29;20218;-79
2023/09/22 09:15:21;;;;;;;2.50;1.13;;;16.90;99.90;;;;;;4929550;29;20310;-80
2023/09/22 09:18:05;;;;;;;2.92;1.38;;;16.90;99.90;;;;;;4924065;29;20243;-77
2023/09/22 09:20:36;;;;;;;1.73;1.00;;;17.00;99.90;;;;;;4930900;29;20238;-78
2023/09/22 09:23:16;;;;;;;1.38;1.33;;;16.80;99.90;;;;;;4934546;29;20210;-83
2023/09/22 09:25:44;;;;;;;2.65;1.00;;;16.60;99.90;;;;;;4940345;29;20211;-81
2023/09/22 09:28:12;;;;;;;1.80;1.40;;;16.60;99.90;;;;;;4940004;29;20231;-81
2023/09/22 09:30:48;;;;;;;1.65;1.00;;;16.50;99.90;;;;;;4939679;29;20317;-79
2023/09/22 09:33:15;;;;;;;1.95;1.23;;;16.60;99.90;;;;;;4940915;29;20210;-77
2023/09/22 09:35:43;;;;;;;3.38;0.80;;;16.60;99.90;;;;;;4940366;29;20241;-81
2023/09/22 09:38:10;;;;;;;2.92;0.98;;;16.70;99.90;;;;;;4936283;29;20245;-80
2023/09/22 09:40:41;;;;;;;2.00;1.00;;;16.80;99.90;;;;;;4935903;29;20235;-79
2023/09/22 09:43:11;;;;;;;2.97;2.00;;;16.90;99.90;;;;;;4940603;29;20715;-79
2023/09/22 09:45:44;;;;;;;2.70;1.38;;;17.50;99.90;;;;;;4941532;29;20214;-79
2023/09/22 09:48:16;;;;;;;2.22;1.30;;;18.10;99.90;;;;;;4947951;29;20242;-78
2023/09/22 09:50:46;;;;;;;2.38;1.38;;;18.20;99.90;;;;;;4940464;29;20663;-78
2023/09/22 09:53:23;;;;;;;1.15;0.82;;;18.60;99.90;;;;;;4941133;29;20246;-78
2023/09/22 09:55:53;;;;;;;1.60;1.15;;;18.90;99.90;;;;;;4937140;29;20246;-80
2023/09/22 09:58:22;;;;;;;1.30;1.02;;;19.00;99.90;;;;;;4938789;29;20227;-79
2023/09/22 10:00:50;;;;;;;3.15;1.20;;;18.90;99.90;;;;;;4936956;29;20634;-78
2023/09/22 10:03:20;;;;;;;3.17;1.27;;;19.10;99.90;;;;;;4938329;29;20226;-78
2023/09/22 10:05:51;;;;;;;2.55;1.15;;;19.00;99.90;;;;;;4931456;29;20242;-78
2023/09/22 10:08:19;;;;;;;5.30;1.42;;;19.30;99.90;;;;;;4931438;29;20275;-79
2023/09/22 10:10:48;;;;;;;1.55;1.10;;;19.50;99.90;;;;;;4943997;29;20217;-78
2023/09/22 10:13:15;;;;;;;1.83;0.93;;;19.70;99.90;;;;;;4938712;29;20219;-79
2023/09/22 10:15:56;;;;;;;1.48;1.00;;;19.20;99.90;;;;;;4934896;29;20228;-78
2023/09/22 10:18:44;;;;;;;2.30;1.15;;;18.50;99.90;;;;;;4939323;29;20238;-78
2023/09/22 10:21:38;;;;;;;1.15;1.05;;;18.60;99.90;;;;;;4934496;29;20222;-79
2023/09/22 10:24:15;;;;;;;3.47;0.98;;;18.30;99.90;;;;;;4938344;29;20623;-77
2023/09/22 10:27:11;;;;;;;1.35;1.08;;;18.70;99.90;;;;;;4948616;29;20791;-79
2023/09/22 10:29:42;;;;;;;0.93;0.88;;;18.40;99.90;;;;;;4941619;29;20207;-79
2023/09/22 10:32:27;;;;;;;1.45;0.95;;;18.90;99.90;;;;;;4940470;29;20663;-79
2023/09/22 10:34:56;;;;;;;3.08;1.30;;;19.00;99.90;;;;;;4943336;29;20573;-78
2023/09/22 10:37:26;;;;;;;3.13;1.13;;;19.10;99.90;;;;;;4942135;29;20253;-79
2023/09/22 10:39:56;;;;;;;0.80;0.70;;;19.30;99.90;;;;;;4942272;29;20237;-80
2023/09/22 10:42:24;;;;;;;0.60;0.60;;;19.70;99.90;;;;;;4937947;29;20210;-79
2023/09/22 10:45:02;;;;;;;1.55;1.08;;;19.40;99.90;;;;;;4947575;29;20203;-79
2023/09/22 10:47:40;;;;;;;3.63;2.10;;;19.20;99.90;;;;;;4937523;29;20231;-79
2023/09/22 10:50:14;;;;;;;1.92;1.05;;;19.30;99.90;;;;;;4942593;29;20199;-78
2023/09/22 10:52:50;;;;;;;0.90;0.90;;;19.80;99.90;;;;;;4938115;29;20222;-79
2023/09/22 10:55:24;;;;;;;3.05;1.13;;;20.50;99.90;;;;;;4940206;29;20224;-78
2023/09/22 10:57:51;;;;;;;0.95;0.90;;;20.70;99.90;;;;;;4941941;29;20278;-79
2023/09/22 11:00:19;;;;;;;1.45;1.08;;;20.30;99.90;;;;;;4937840;29;20690;-78
2023/09/22 11:02:46;;;;;;;1.55;0.90;;;20.00;99.90;;;;;;4944663;29;20275;-78
2023/09/22 11:05:13;;;;;;;2.72;1.27;;;20.10;99.90;;;;;;4941665;29;20203;-77
2023/09/22 11:07:41;;;;;;;1.52;0.70;;;20.00;99.90;;;;;;4945429;29;20762;-78
2023/09/22 11:10:17;;;;;;;2.58;0.82;;;20.00;99.90;;;;;;4940928;29;20203;-78
2023/09/22 11:12:48;;;;;;;1.08;0.77;;;19.90;99.90;;;;;;4940874;29;20218;-78
2023/09/22 11:15:15;;;;;;;1.17;0.95;;;20.30;99.90;;;;;;4939176;29;20632;-78
2023/09/22 11:17:46;;;;;;;1.23;0.70;;;20.50;99.90;;;;;;4945616;29;20230;-79
2023/09/22 11:20:18;;;;;;;1.30;0.82;;;20.30;99.90;;;;;;4941911;29;20728;-79
2023/09/22 11:22:45;;;;;;;2.33;0.90;;;19.90;99.90;;;;;;4934869;29;20307;-78
2023/09/22 11:25:13;;;;;;;1.23;0.68;;;19.70;99.90;;;;;;4941164;29;20681;-78
2023/09/22 11:27:45;;;;;;;2.03;0.88;;;19.40;99.90;;;;;;4940196;29;20302;-78
2023/09/22 11:30:15;;;;;;;1.88;1.08;;;19.50;99.90;;;;;;4940686;29;20210;-78
2023/09/22 11:32:43;;;;;;;2.15;0.80;;;19.30;99.90;;;;;;4948022;29;20199;-79
2023/09/22 11:35:10;;;;;;;0.70;0.43;;;20.20;99.90;;;;;;4940491;29;20211;-80
2023/09/22 11:37:37;;;;;;;1.65;0.77;;;20.50;99.90;;;;;;4939082;29;20245;-78
2023/09/22 11:40:15;;;;;;;0.70;0.70;;;20.30;99.90;;;;;;4940917;29;20600;-80
2023/09/22 11:42:47;;;;;;;1.23;0.57;;;20.20;99.90;;;;;;4941487;29;20210;-79
2023/09/22 11:45:20;;;;;;;2.15;0.70;;;20.60;99.90;;;;;;4941131;29;20301;-79
2023/09/22 11:47:49;;;;;;;1.90;1.10;;;20.70;99.90;;;;;;4935187;29;20298;-80
2023/09/22 11:50:22;;;;;;;3.92;1.27;;;20.80;99.90;;;;;;4939690;29;20306;-79
2023/09/22 11:52:49;;;;;;;2.17;0.70;;;21.30;99.90;;;;;;4937146;29;20594;-80
2023/09/22 11:55:17;;;;;;;2.10;0.88;;;21.30;99.90;;;;;;4932004;29;20218;-79
2023/09/22 11:57:45;;;;;;;1.23;0.80;;;21.20;99.90;;;;;;4948673;29;20230;-80
2023/09/22 12:00:15;;;;;;;2.55;0.85;;;21.30;99.90;;;;;;4953253;29;20242;-79
2023/09/22 12:02:42;;;;;;;1.88;0.90;;;21.30;99.90;;;;;;4951829;29;20271;-80
2023/09/22 12:05:09;;;;;;;1.98;0.70;;;21.60;99.90;;;;;;4949606;29;20245;-79
2023/09/22 12:07:36;;;;;;;2.55;0.75;;;21.90;99.90;;;;;;4945160;29;20248;-80
2023/09/22 12:10:03;;;;;;;0.98;0.63;;;22.10;99.90;;;;;;4937246;29;20200;-79
2023/09/22 12:12:32;;;;;;;1.75;0.63;;;21.70;99.90;;;;;;4940112;29;20208;-78
2023/09/22 12:14:59;;;;;;;0.73;0.60;;;21.60;99.90;;;;;;4940047;29;20215;-79
2023/09/22 12:17:26;;;;;;;1.30;0.68;;;21.50;99.90;;;;;;4933714;29;20262;-80
2023/09/22 12:19:53;;;;;;;1.65;0.73;;;22.20;99.90;;;;;;4941423;29;20917;-80
2023/09/22 12:22:19;;;;;;;0.93;0.77;;;22.20;99.90;;;;;;4948127;28;20651;-79
2023/09/22 12:24:46;;;;;;;1.23;0.75;;;22.40;99.90;;;;;;4940015;29;20211;-79
2023/09/22 12:27:13;;;;;;;1.23;1.00;;;22.40;99.90;;;;;;4944911;29;20237;-79
2023/09/22 12:29:41;;;;;;;3.22;1.40;;;22.10;99.90;;;;;;4945659;29;20226;-80
2023/09/22 12:32:08;;;;;;;1.48;0.75;;;22.00;99.90;;;;;;4940916;29;20221;-79
2023/09/22 12:34:35;;;;;;;0.88;0.70;;;21.90;99.90;;;;;;4944356;29;20199;-80
2023/09/22 12:37:02;;;;;;;1.00;0.80;;;21.40;99.90;;;;;;4949178;29;20241;-80
2023/09/22 12:39:29;;;;;;;1.48;0.68;;;21.70;99.90;;;;;;4946357;29;20631;-80
2023/09/22 12:41:56;;;;;;;2.08;0.68;;;21.30;99.90;;;;;;4945173;29;20211;-80
2023/09/22 12:44:23;;;;;;;1.27;0.70;;;21.80;99.90;;;;;;4940749;29;20215;-79
2023/09/22 12:46:51;;;;;;;2.70;0.60;;;22.20;99.90;;;;;;4940848;29;20679;-79
2023/09/22 12:49:18;;;;;;;0.80;0.80;;;22.70;99.90;;;;;;4945574;29;20694;-78
2023/09/22 12:51:45;;;;;;;2.72;1.02;;;22.60;99.90;;;;;;4945180;29;20597;-78